createdAt,value
2022-11-26T00:02:24.541Z,84.63
2022-11-26T00:04:52.276Z,84.28
2022-11-26T00:07:21.568Z,84.40
2022-11-26T00:09:49.443Z,83.79
2022-11-26T00:12:25.270Z,83.93
2022-11-26T00:14:52.489Z,84.51
2022-11-26T00:17:20.448Z,84.55
2022-11-26T00:19:47.421Z,85.40
2022-11-26T00:22:24.589Z,84.98
2022-11-26T00:24:52.854Z,84.99
2022-11-26T00:27:19.701Z,85.69
2022-11-26T00:29:46.539Z,84.67
2022-11-26T00:32:21.929Z,84.48
2022-11-26T00:34:49.290Z,84.63
2022-11-26T00:37:33.893Z,84.35
2022-11-26T00:40:01.904Z,83.66
2022-11-26T00:42:28.526Z,84.00
2022-11-26T00:44:55.198Z,84.83
2022-11-26T00:47:21.818Z,84.63
2022-11-26T00:49:48.607Z,84.29
2022-11-26T00:52:33.767Z,84.09
2022-11-26T00:55:06.132Z,84.28
2022-11-26T00:57:32.955Z,83.72
2022-11-26T00:59:59.599Z,83.94
2022-11-26T01:02:26.293Z,83.87
2022-11-26T01:04:52.943Z,83.89
2022-11-26T01:07:19.942Z,83.65
2022-11-26T01:09:47.504Z,83.53
2022-11-26T01:12:15.044Z,83.49
2022-11-26T01:14:41.880Z,83.78
2022-11-26T01:17:11.535Z,83.59
2022-11-26T01:19:38.263Z,82.88
2022-11-26T01:22:05.020Z,83.32
2022-11-26T01:24:31.641Z,82.18
2022-11-26T01:26:58.314Z,82.69
2022-11-26T01:29:25.121Z,83.40
2022-11-26T01:31:51.889Z,83.01
2022-11-26T01:34:18.518Z,83.60
2022-11-26T01:36:45.273Z,83.22
2022-11-26T01:39:17.642Z,83.54
2022-11-26T01:41:53.301Z,83.14
2022-11-26T01:44:29.426Z,82.97
2022-11-26T01:46:57.516Z,83.47
2022-11-26T01:49:27.299Z,83.91
2022-11-26T01:52:12.301Z,83.80
2022-11-26T01:54:42.315Z,84.05
2022-11-26T01:57:16.773Z,84.79
2022-11-26T01:59:46.914Z,85.01
2022-11-26T02:02:13.620Z,85.27
2022-11-26T02:04:55.734Z,84.85
2022-11-26T02:07:22.497Z,85.26
2022-11-26T02:09:49.600Z,85.07
2022-11-26T02:12:16.647Z,84.36
2022-11-26T02:14:44.395Z,84.10
2022-11-26T02:17:39.205Z,83.69
2022-11-26T02:20:15.019Z,84.07
2022-11-26T02:22:53.266Z,84.16
2022-11-26T02:25:29.042Z,83.82
2022-11-26T02:28:29.656Z,83.55
2022-11-26T02:31:09.718Z,83.76
2022-11-26T02:33:48.413Z,83.96
2022-11-26T02:36:24.696Z,83.87
2022-11-26T02:38:51.994Z,84.06
2022-11-26T02:41:18.648Z,82.97
2022-11-26T02:43:45.742Z,83.17
2022-11-26T02:46:17.256Z,83.42
2022-11-26T02:48:49.074Z,83.15
2022-11-26T02:51:23.987Z,82.86
2022-11-26T02:53:52.756Z,83.74
2022-11-26T02:56:23.353Z,82.91
2022-11-26T02:58:52.106Z,83.51
2022-11-26T03:01:27.288Z,83.45
2022-11-26T03:03:56.884Z,83.48
2022-11-26T03:06:25.818Z,83.46
2022-11-26T03:08:54.265Z,84.05
2022-11-26T03:11:21.462Z,83.89
2022-11-26T03:13:49.639Z,83.31
2022-11-26T03:16:19.543Z,83.05
2022-11-26T03:18:46.623Z,83.01
2022-11-26T03:21:13.183Z,83.45
2022-11-26T03:23:39.940Z,83.32
2022-11-26T03:26:06.735Z,83.12
2022-11-26T03:28:33.327Z,83.45
2022-11-26T03:30:59.898Z,83.90
2022-11-26T03:33:26.651Z,84.24
2022-11-26T03:35:53.251Z,83.80
2022-11-26T03:38:19.900Z,84.25
2022-11-26T03:40:55.165Z,83.85
2022-11-26T03:43:21.799Z,83.70
2022-11-26T03:45:48.411Z,84.04
2022-11-26T03:48:15.209Z,84.11
2022-11-26T03:50:41.789Z,84.06
2022-11-26T03:53:08.815Z,84.56
2022-11-26T03:55:35.493Z,83.60
2022-11-26T03:58:02.164Z,84.24
2022-11-26T04:00:28.985Z,83.89
2022-11-26T04:02:56.114Z,84.00
2022-11-26T04:05:22.757Z,83.94
2022-11-26T04:07:49.468Z,83.90
2022-11-26T04:10:16.254Z,83.89
2022-11-26T04:12:42.975Z,83.90
2022-11-26T04:15:10.136Z,84.15
2022-11-26T04:17:36.907Z,84.27
2022-11-26T04:20:04.204Z,83.87
2022-11-26T04:22:30.896Z,84.43
2022-11-26T04:24:57.657Z,83.62
2022-11-26T04:27:24.311Z,83.54
2022-11-26T04:29:50.899Z,82.94
2022-11-26T04:32:17.566Z,82.79
2022-11-26T04:34:44.149Z,83.06
2022-11-26T04:37:10.823Z,82.78
2022-11-26T04:39:37.459Z,83.23
2022-11-26T04:42:04.279Z,83.25
2022-11-26T04:44:30.866Z,83.30
2022-11-26T04:46:57.638Z,83.44
2022-11-26T04:49:24.365Z,82.99
2022-11-26T04:51:51.229Z,83.25
2022-11-26T04:54:17.872Z,82.95
2022-11-26T04:56:44.594Z,82.71
2022-11-26T04:59:11.171Z,82.90
2022-11-26T05:01:37.979Z,82.64
2022-11-26T05:04:04.792Z,82.61
2022-11-26T05:06:31.421Z,82.23
2022-11-26T05:08:58.089Z,82.32
2022-11-26T05:11:24.739Z,81.71
2022-11-26T05:13:51.316Z,81.75
2022-11-26T05:16:18.331Z,81.41
2022-11-26T05:18:44.971Z,81.44
2022-11-26T05:21:11.665Z,81.04
2022-11-26T05:23:38.377Z,80.60
2022-11-26T05:26:05.139Z,80.84
2022-11-26T05:28:31.745Z,80.73
2022-11-26T05:31:00.281Z,79.89
2022-11-26T05:33:27.361Z,79.72
2022-11-26T05:35:54.137Z,79.78
2022-11-26T05:38:20.950Z,79.77
2022-11-26T05:40:47.682Z,78.99
2022-11-26T05:43:14.244Z,78.90
2022-11-26T05:45:41.044Z,78.95
2022-11-26T05:48:07.658Z,78.98
2022-11-26T05:50:34.453Z,79.42
2022-11-26T05:53:01.131Z,79.35
2022-11-26T05:55:27.846Z,79.13
2022-11-26T05:57:54.421Z,79.23
2022-11-26T06:00:21.277Z,78.60
2022-11-26T06:02:47.980Z,78.96
2022-11-26T06:05:14.787Z,78.89
2022-11-26T06:07:44.565Z,79.25
2022-11-26T06:10:12.732Z,78.64
2022-11-26T06:12:39.330Z,78.22
2022-11-26T06:15:06.804Z,78.85
2022-11-26T06:17:33.521Z,79.32
2022-11-26T06:20:00.196Z,79.11
2022-11-26T06:22:26.939Z,79.36
2022-11-26T06:24:53.615Z,78.90
2022-11-26T06:27:20.183Z,79.06
2022-11-26T06:29:46.942Z,78.99
2022-11-26T06:32:13.518Z,78.91
2022-11-26T06:34:43.545Z,79.22
2022-11-26T06:37:10.751Z,79.19
2022-11-26T06:39:37.383Z,79.12
2022-11-26T06:42:04.253Z,78.61
2022-11-26T06:44:31.053Z,78.94
2022-11-26T06:46:57.754Z,79.06
2022-11-26T06:49:24.334Z,79.19
2022-11-26T06:51:51.151Z,79.48
2022-11-26T06:54:17.720Z,79.61
2022-11-26T06:56:44.491Z,79.22
2022-11-26T06:59:11.376Z,79.56
2022-11-26T07:01:38.549Z,79.29
2022-11-26T07:04:05.299Z,79.44
2022-11-26T07:06:33.238Z,79.75
2022-11-26T07:09:04.135Z,79.83
2022-11-26T07:11:31.085Z,80.03
2022-11-26T07:13:57.785Z,80.41
2022-11-26T07:16:24.715Z,81.11
2022-11-26T07:18:57.788Z,81.57
2022-11-26T07:21:28.647Z,81.92
2022-11-26T07:23:55.575Z,82.43
2022-11-26T07:26:23.614Z,82.90
2022-11-26T07:28:50.977Z,83.64
2022-11-26T07:31:20.878Z,83.43
2022-11-26T07:33:48.125Z,83.80
2022-11-26T07:36:20.708Z,84.34
2022-11-26T07:38:48.247Z,84.73
2022-11-26T07:41:17.567Z,84.74
2022-11-26T07:43:45.278Z,84.56
2022-11-26T07:46:15.750Z,85.49
2022-11-26T07:48:42.724Z,85.18
2022-11-26T07:51:18.483Z,85.94
2022-11-26T07:53:45.995Z,85.87
2022-11-26T07:56:12.593Z,85.50
2022-11-26T07:58:39.421Z,85.88
2022-11-26T08:01:11.808Z,86.55
2022-11-26T08:03:43.207Z,87.21
2022-11-26T08:06:12.272Z,87.46
2022-11-26T08:08:38.925Z,87.01
2022-11-26T08:11:13.087Z,87.37
2022-11-26T08:13:40.706Z,86.97
2022-11-26T08:16:07.816Z,88.12
2022-11-26T08:18:35.597Z,87.77
2022-11-26T08:21:02.434Z,87.17
2022-11-26T08:23:30.461Z,86.40
2022-11-26T08:26:21.546Z,86.66
2022-11-26T08:28:45.524Z,86.25
2022-11-26T08:31:13.725Z,86.30
2022-11-26T08:33:40.689Z,86.61
2022-11-26T08:36:08.810Z,86.96
2022-11-26T08:38:36.427Z,86.82
2022-11-26T08:41:05.991Z,86.83
2022-11-26T08:44:04.714Z,88.43
2022-11-26T08:46:22.166Z,88.04
2022-11-26T08:48:48.803Z,88.46
2022-11-26T08:51:15.486Z,90.10
2022-11-26T08:53:42.126Z,91.06
2022-11-26T08:56:11.957Z,91.51
2022-11-26T08:58:43.342Z,91.51
2022-11-26T09:01:12.002Z,92.65
2022-11-26T09:03:38.799Z,91.84
2022-11-26T09:06:07.293Z,91.71
2022-11-26T09:08:37.577Z,91.62
2022-11-26T09:11:04.273Z,91.31
2022-11-26T09:13:30.949Z,90.69
2022-11-26T09:15:57.740Z,90.89
2022-11-26T09:18:24.417Z,90.36
2022-11-26T09:20:56.858Z,89.80
2022-11-26T09:23:23.911Z,90.30
2022-11-26T09:25:50.585Z,89.54
2022-11-26T09:28:17.382Z,88.60
2022-11-26T09:30:43.978Z,87.43
2022-11-26T09:33:10.655Z,87.45
2022-11-26T09:35:37.375Z,88.12
2022-11-26T09:38:04.118Z,87.55
2022-11-26T09:40:45.675Z,87.19
2022-11-26T09:43:30.287Z,87.58
2022-11-26T09:46:00.521Z,87.56
2022-11-26T09:48:30.992Z,88.59
2022-11-26T09:51:08.023Z,88.38
2022-11-26T09:53:41.072Z,87.88
2022-11-26T09:56:14.857Z,87.39
2022-11-26T09:58:52.237Z,87.38
2022-11-26T10:01:21.795Z,86.75
2022-11-26T10:03:48.634Z,86.63
2022-11-26T10:06:18.376Z,86.35
2022-11-26T10:09:21.746Z,87.81
2022-11-26T10:11:51.944Z,87.90
2022-11-26T10:14:32.453Z,86.98
2022-11-26T10:17:04.855Z,86.26
2022-11-26T10:20:08.823Z,85.66
2022-11-26T10:22:45.776Z,85.47
2022-11-26T10:25:21.424Z,85.37
2022-11-26T10:27:49.555Z,85.67
2022-11-26T10:30:20.085Z,85.42
2022-11-26T10:32:49.642Z,85.09
2022-11-26T10:35:18.312Z,84.93
2022-11-26T10:37:45.332Z,86.52
2022-11-26T10:40:32.301Z,86.53
2022-11-26T10:43:08.183Z,86.81
2022-11-26T10:45:45.893Z,86.50
2022-11-26T10:48:27.499Z,86.66
2022-11-26T10:51:12.176Z,87.51
2022-11-26T10:53:55.155Z,87.84
2022-11-26T10:56:43.442Z,86.47
2022-11-26T10:59:22.043Z,84.34
2022-11-26T11:01:51.657Z,84.09
2022-11-26T11:04:44.805Z,83.67
2022-11-26T11:07:35.955Z,83.15
2022-11-26T11:10:15.542Z,82.86
2022-11-26T11:12:49.988Z,82.52
2022-11-26T11:15:19.909Z,82.46
2022-11-26T11:17:54.648Z,82.95
2022-11-26T11:20:29.688Z,82.92
2022-11-26T11:23:03.175Z,81.75
2022-11-26T11:25:33.142Z,81.56
2022-11-26T11:28:20.468Z,82.71
2022-11-26T11:30:56.908Z,82.15
2022-11-26T11:33:27.434Z,83.52
2022-11-26T11:36:12.391Z,83.68
2022-11-26T11:38:59.859Z,83.42
2022-11-26T11:41:36.796Z,83.24
2022-11-26T11:44:18.404Z,84.04
2022-11-26T12:21:41.082Z,84.87
2022-11-26T12:24:29.424Z,84.50
2022-11-26T12:27:03.265Z,84.19
2022-11-26T12:29:29.900Z,84.62
2022-11-26T12:32:21.239Z,84.34
2022-11-26T12:34:51.974Z,83.89
2022-11-26T12:37:28.308Z,84.05
2022-11-26T12:40:19.539Z,84.50
2022-11-26T12:42:59.103Z,84.31
2022-11-26T12:45:43.980Z,84.04
2022-11-26T12:48:15.703Z,83.75
2022-11-26T12:50:48.211Z,83.00
2022-11-26T12:53:37.018Z,83.00
2022-11-26T12:56:25.540Z,82.69
2022-11-26T12:59:18.545Z,83.49
2022-11-26T13:01:45.507Z,82.50
2022-11-26T13:04:36.854Z,82.67
2022-11-26T13:07:13.032Z,81.74
2022-11-26T13:10:00.596Z,81.48
2022-11-26T13:12:52.205Z,81.15
2022-11-26T13:15:35.232Z,80.39
2022-11-26T13:18:04.516Z,80.50
2022-11-26T13:21:10.231Z,79.55
2022-11-26T13:23:50.936Z,80.17
2022-11-26T13:26:48.621Z,80.18
2022-11-26T13:29:41.622Z,79.40
2022-11-26T13:32:14.149Z,79.07
2022-11-26T13:35:18.082Z,80.08
2022-11-26T13:38:17.628Z,79.85
2022-11-26T13:41:06.021Z,79.60
2022-11-26T13:43:54.724Z,79.50
2022-11-26T13:46:32.060Z,79.23
2022-11-26T13:49:14.432Z,78.82
2022-11-26T13:51:53.404Z,78.61
2022-11-26T13:54:26.903Z,78.61
2022-11-26T13:57:06.148Z,78.90
2022-11-26T13:59:34.369Z,79.67
2022-11-26T14:02:32.933Z,79.16
2022-11-26T14:05:02.079Z,78.94
2022-11-26T14:07:28.900Z,78.46
2022-11-26T14:09:58.367Z,78.00
2022-11-26T14:13:03.083Z,77.52
2022-11-26T14:16:05.129Z,77.54
2022-11-26T14:18:50.509Z,77.34
2022-11-26T14:21:21.600Z,76.71
2022-11-26T14:23:49.517Z,76.77
2022-11-26T14:26:23.594Z,77.29
2022-11-26T14:29:01.289Z,77.43
2022-11-26T14:31:31.643Z,76.90
2022-11-26T14:34:07.560Z,76.79
2022-11-26T14:36:34.420Z,76.98
2022-11-26T14:39:10.184Z,76.90
2022-11-26T14:41:42.916Z,76.67
2022-11-26T14:44:14.840Z,76.09
2022-11-26T14:46:44.518Z,75.65
2022-11-26T14:49:36.236Z,75.59
2022-11-26T14:52:32.186Z,75.55
2022-11-26T14:55:02.772Z,75.02
2022-11-26T14:57:40.852Z,74.47
2022-11-26T15:00:13.460Z,75.03
2022-11-26T15:02:46.310Z,75.37
2022-11-26T15:05:16.853Z,75.75
2022-11-26T15:07:44.478Z,75.54
2022-11-26T15:10:14.209Z,75.22
2022-11-26T15:12:42.195Z,74.54
2022-11-26T15:15:27.139Z,74.74
2022-11-26T15:17:58.830Z,74.55
2022-11-26T15:20:28.144Z,74.20
2022-11-26T15:22:58.122Z,74.39
2022-11-26T15:25:34.459Z,74.77
2022-11-26T15:28:06.273Z,73.98
2022-11-26T15:30:37.971Z,74.50
2022-11-26T15:33:13.292Z,74.31
2022-11-26T15:35:41.426Z,73.90
2022-11-26T15:38:15.231Z,73.48
2022-11-26T15:40:56.064Z,73.61
2022-11-26T15:43:29.085Z,73.47
2022-11-26T15:46:12.290Z,73.58
2022-11-26T15:49:01.853Z,73.45
2022-11-26T15:51:37.665Z,73.13
2022-11-26T15:54:26.411Z,73.19
2022-11-26T15:57:07.943Z,72.90
2022-11-26T15:59:46.303Z,72.80
2022-11-26T16:02:24.637Z,73.12
2022-11-26T16:04:56.593Z,73.10
2022-11-26T16:07:33.614Z,72.80
2022-11-26T16:10:21.450Z,72.62
2022-11-26T16:13:16.615Z,72.40
2022-11-26T16:15:59.290Z,72.96
2022-11-26T16:18:39.697Z,72.51
2022-11-26T16:21:33.411Z,73.23
2022-11-26T16:24:26.210Z,73.57
2022-11-26T16:26:57.720Z,74.63
2022-11-26T16:29:25.473Z,74.59
2022-11-26T16:31:52.123Z,74.72
2022-11-26T16:34:19.032Z,74.82
2022-11-26T16:36:46.100Z,74.74
2022-11-26T16:39:16.685Z,73.18
2022-11-26T16:41:43.319Z,72.46
2022-11-26T16:44:10.027Z,71.92
2022-11-26T16:46:38.049Z,71.80
2022-11-26T16:49:05.248Z,71.74
2022-11-26T16:51:31.972Z,71.63
2022-11-26T16:53:58.658Z,72.16
2022-11-26T16:56:32.128Z,72.37
2022-11-26T16:58:59.610Z,72.77
2022-11-26T17:01:26.236Z,72.53
2022-11-26T17:03:53.341Z,72.95
2022-11-26T17:06:27.597Z,73.03
2022-11-26T17:08:56.282Z,73.13
2022-11-26T17:11:23.830Z,72.99
2022-11-26T17:13:50.720Z,73.59
2022-11-26T17:16:22.736Z,73.23
2022-11-26T17:18:49.760Z,73.48
2022-11-26T17:21:16.440Z,73.52
2022-11-26T17:23:43.109Z,73.53
2022-11-26T17:26:20.005Z,74.03
2022-11-26T17:28:47.207Z,74.28
2022-11-26T17:31:13.911Z,73.58
2022-11-26T17:33:40.767Z,73.50
2022-11-26T17:36:25.494Z,74.06
2022-11-26T17:38:52.534Z,74.31
2022-11-26T17:41:19.172Z,74.53
2022-11-26T17:44:10.946Z,73.95
2022-11-26T17:46:54.442Z,74.25
2022-11-26T17:49:26.527Z,74.32
2022-11-26T17:51:53.309Z,74.55
2022-11-26T17:54:20.257Z,74.52
2022-11-26T17:56:47.957Z,74.39
2022-11-26T17:59:18.304Z,73.92
2022-11-26T18:01:51.299Z,73.76
2022-11-26T18:04:18.096Z,74.09
2022-11-26T18:06:51.895Z,74.26
2022-11-26T18:09:23.326Z,74.36
2022-11-26T18:11:55.734Z,74.23
2022-11-26T18:14:24.437Z,74.58
2022-11-26T18:16:52.228Z,74.18
2022-11-26T18:19:22.592Z,74.43
2022-11-26T18:21:50.582Z,74.19
2022-11-26T18:24:20.628Z,74.09
2022-11-26T18:26:47.447Z,74.34
2022-11-26T18:29:14.253Z,74.80
2022-11-26T18:31:41.899Z,74.70
2022-11-26T18:34:10.534Z,74.51
2022-11-26T18:36:38.472Z,74.07
2022-11-26T18:39:06.090Z,73.07
2022-11-26T18:41:34.099Z,73.31
2022-11-26T18:44:01.578Z,74.03
2022-11-26T18:46:30.191Z,74.42
2022-11-26T18:48:57.568Z,74.91
2022-11-26T18:51:24.736Z,74.67
2022-11-26T18:53:51.634Z,74.99
2022-11-26T18:56:21.245Z,74.88
2022-11-26T18:58:49.321Z,74.79
2022-11-26T19:01:31.477Z,75.16
2022-11-26T19:03:59.449Z,74.52
2022-11-26T19:06:29.310Z,74.76
2022-11-26T19:09:01.543Z,75.08
2022-11-26T19:11:29.044Z,74.87
2022-11-26T19:13:57.016Z,75.07
2022-11-26T19:16:27.369Z,74.56
2022-11-26T19:18:54.448Z,75.00
2022-11-26T19:21:39.233Z,74.83
2022-11-26T19:24:08.481Z,75.33
2022-11-26T19:26:36.869Z,75.13
2022-11-26T19:29:07.730Z,74.07
2022-11-26T19:31:34.901Z,74.66
2022-11-26T19:34:03.685Z,74.94
2022-11-26T19:36:30.444Z,75.70
2022-11-26T19:38:58.800Z,75.68
2022-11-26T19:41:27.902Z,75.47
2022-11-26T19:43:55.549Z,76.04
2022-11-26T19:46:24.195Z,75.36
2022-11-26T19:48:52.144Z,75.05
2022-11-26T19:51:20.810Z,74.29
2022-11-26T19:53:51.557Z,73.14
2022-11-26T19:56:19.897Z,74.07
2022-11-26T19:58:47.168Z,74.51
2022-11-26T20:01:18.084Z,75.00
2022-11-26T20:03:46.104Z,75.61
2022-11-26T20:06:15.928Z,75.49
2022-11-26T20:08:43.423Z,75.52
2022-11-26T20:11:11.041Z,74.96
2022-11-26T20:13:40.288Z,75.20
2022-11-26T20:16:09.731Z,75.04
2022-11-26T20:18:37.976Z,75.33
2022-11-26T20:21:14.669Z,75.32
2022-11-26T20:23:43.829Z,75.93
2022-11-26T20:26:19.653Z,75.63
2022-11-26T20:28:46.512Z,75.90
2022-11-26T20:31:18.199Z,76.13
2022-11-26T20:33:50.202Z,75.68
2022-11-26T20:36:17.667Z,75.67
2022-11-26T20:38:44.301Z,75.66
2022-11-26T20:41:13.380Z,75.79
2022-11-26T20:43:40.161Z,75.71
2022-11-26T20:46:08.081Z,75.46
2022-11-26T20:48:36.634Z,75.74
2022-11-26T20:51:09.858Z,75.81
2022-11-26T20:53:38.042Z,75.67
2022-11-26T20:56:06.307Z,75.21
2022-11-26T20:58:34.575Z,75.51
2022-11-26T21:01:02.341Z,75.68
2022-11-26T21:03:29.288Z,75.25
2022-11-26T21:05:55.907Z,75.11
2022-11-26T21:08:23.207Z,75.34
2022-11-26T21:10:50.589Z,74.80
2022-11-26T21:13:18.699Z,75.14
2022-11-26T21:15:46.366Z,75.56
2022-11-26T21:18:14.754Z,75.60
2022-11-26T21:20:43.154Z,76.12
2022-11-26T21:23:11.252Z,76.46
2022-11-26T21:25:39.469Z,76.50
2022-11-26T21:28:07.422Z,76.45
2022-11-26T21:30:40.840Z,76.75
2022-11-26T21:33:09.623Z,77.00
2022-11-26T21:35:37.683Z,77.39
2022-11-26T21:38:05.799Z,77.11
2022-11-26T21:40:33.564Z,77.41
2022-11-26T21:43:16.851Z,78.11
2022-11-26T21:45:43.553Z,77.82
2022-11-26T21:48:10.253Z,78.00
2022-11-26T21:50:36.944Z,78.30
2022-11-26T21:53:03.554Z,78.38
2022-11-26T21:55:30.951Z,78.05
2022-11-26T21:57:58.134Z,78.07
2022-11-26T22:00:24.855Z,78.00
2022-11-26T22:02:51.491Z,77.62
2022-11-26T22:05:18.142Z,77.42
2022-11-26T22:07:44.884Z,77.86
2022-11-26T22:10:11.737Z,77.67
2022-11-26T22:12:38.300Z,77.90
2022-11-26T22:15:05.396Z,77.56
2022-11-26T22:17:32.055Z,77.77
2022-11-26T22:19:58.738Z,77.86
2022-11-26T22:22:27.456Z,77.73
2022-11-26T22:24:54.242Z,77.66
2022-11-26T22:27:21.150Z,77.28
2022-11-26T22:29:48.285Z,77.26
2022-11-26T22:32:15.236Z,76.84
2022-11-26T22:34:41.883Z,76.66
2022-11-26T22:37:08.472Z,77.00
2022-11-26T22:39:35.184Z,77.50
2022-11-26T22:42:01.777Z,76.52
2022-11-26T22:44:28.408Z,77.19
2022-11-26T22:46:55.065Z,77.55
2022-11-26T22:49:21.743Z,77.93
2022-11-26T22:51:48.308Z,77.46
2022-11-26T22:54:16.360Z,77.63
2022-11-26T22:56:42.919Z,77.58
2022-11-26T22:59:12.685Z,78.42
2022-11-26T23:01:39.670Z,78.76
2022-11-26T23:04:09.052Z,78.85
2022-11-26T23:06:36.632Z,79.15
2022-11-26T23:09:06.269Z,79.45
2022-11-26T23:11:37.139Z,79.12
2022-11-26T23:14:04.349Z,78.67
2022-11-26T23:16:30.960Z,79.63
2022-11-26T23:18:57.727Z,79.45
2022-11-26T23:21:27.719Z,80.17
2022-11-26T23:23:55.567Z,80.24
2022-11-26T23:26:27.445Z,80.39
2022-11-26T23:28:56.697Z,79.98
2022-11-26T23:31:26.487Z,80.06
2022-11-26T23:33:53.579Z,79.76
2022-11-26T23:36:21.397Z,79.86
2022-11-26T23:38:48.137Z,79.98
2022-11-26T23:41:15.240Z,80.23
2022-11-26T23:43:42.279Z,80.99
2022-11-26T23:46:27.780Z,79.76
2022-11-26T23:48:55.214Z,79.50
2022-11-26T23:51:24.746Z,81.36
2022-11-26T23:53:52.817Z,81.89
2022-11-26T23:56:25.667Z,81.38
2022-11-26T23:58:57.388Z,80.64
